createdAt,value
2022-12-08T00:02:06.651Z,13.73
2022-12-08T00:04:56.284Z,14.25
2022-12-08T00:07:38.259Z,14.75
2022-12-08T00:10:39.704Z,15.57
2022-12-08T00:12:59.068Z,12.93
2022-12-08T00:15:28.736Z,15.30
2022-12-08T00:18:00.750Z,14.10
2022-12-08T00:20:30.291Z,14.40
2022-12-08T00:23:00.921Z,15.05
2022-12-08T00:25:30.490Z,16.00
2022-12-08T00:28:00.015Z,15.57
2022-12-08T00:30:29.419Z,16.80
2022-12-08T00:33:01.464Z,18.63
2022-12-08T00:35:30.944Z,16.10
2022-12-08T00:38:00.935Z,17.52
2022-12-08T00:40:30.647Z,16.63
2022-12-08T00:43:00.393Z,16.30
2022-12-08T00:45:30.845Z,13.30
2022-12-08T00:48:02.918Z,10.93
2022-12-08T00:50:32.380Z,16.63
2022-12-08T00:53:01.900Z,17.13
2022-12-08T00:55:31.650Z,16.40
2022-12-08T00:58:02.104Z,15.98
2022-12-08T01:00:31.884Z,16.23
2022-12-08T01:03:03.963Z,16.88
2022-12-08T01:05:33.528Z,17.40
2022-12-08T01:08:03.074Z,17.20
2022-12-08T01:10:32.653Z,17.90
2022-12-08T01:13:02.152Z,14.48
2022-12-08T01:15:31.639Z,14.63
2022-12-08T01:18:04.721Z,15.48
2022-12-08T01:20:34.293Z,14.63
2022-12-08T01:23:03.734Z,14.57
2022-12-08T01:25:33.318Z,12.68
2022-12-08T01:28:02.979Z,12.68
2022-12-08T01:30:32.500Z,13.48
2022-12-08T01:33:04.673Z,12.77
2022-12-08T01:35:34.116Z,11.75
2022-12-08T01:38:03.640Z,12.98
2022-12-08T01:40:33.391Z,10.50
2022-12-08T01:43:02.863Z,11.85
2022-12-08T01:45:33.803Z,14.57
2022-12-08T01:48:08.742Z,11.35
2022-12-08T01:50:38.416Z,11.13
2022-12-08T01:53:12.059Z,11.10
2022-12-08T01:55:44.903Z,11.35
2022-12-08T01:58:17.799Z,11.05
2022-12-08T02:00:47.406Z,10.20
2022-12-08T02:03:23.181Z,10.70
2022-12-08T02:05:52.732Z,8.25
2022-12-08T02:08:22.837Z,10.00
2022-12-08T02:10:53.720Z,7.55
2022-12-08T02:13:24.521Z,10.32
2022-12-08T02:16:02.477Z,6.30
2022-12-08T02:18:57.688Z,8.88
2022-12-08T02:21:40.617Z,7.38
2022-12-08T02:24:15.652Z,6.13
2022-12-08T02:27:11.490Z,4.28
2022-12-08T02:30:16.800Z,7.70
2022-12-08T02:33:13.088Z,4.65
2022-12-08T02:35:50.490Z,6.30
2022-12-08T02:38:26.922Z,5.55
2022-12-08T02:41:03.145Z,6.80
2022-12-08T02:43:37.175Z,5.95
2022-12-08T02:46:08.863Z,8.60
2022-12-08T02:48:38.343Z,7.80
2022-12-08T02:51:10.517Z,8.15
2022-12-08T02:53:39.957Z,7.80
2022-12-08T02:56:18.240Z,8.40
2022-12-08T02:59:11.338Z,9.10
2022-12-08T03:01:51.558Z,5.15
2022-12-08T03:04:26.077Z,8.93
2022-12-08T03:07:02.166Z,8.70
2022-12-08T03:09:37.814Z,7.32
2022-12-08T03:12:12.120Z,6.53
2022-12-08T03:14:42.500Z,7.93
2022-12-08T03:17:12.137Z,7.55
2022-12-08T03:19:43.089Z,3.03
2022-12-08T03:22:16.489Z,4.57
2022-12-08T03:24:47.035Z,6.80
2022-12-08T03:27:19.140Z,6.20
2022-12-08T03:29:49.313Z,5.63
2022-12-08T03:32:25.421Z,5.60
2022-12-08T03:34:57.746Z,5.65
2022-12-08T03:37:30.053Z,4.73
2022-12-08T03:39:59.484Z,5.28
2022-12-08T03:42:28.987Z,4.60
2022-12-08T03:44:58.492Z,4.10
2022-12-08T03:47:27.886Z,5.30
2022-12-08T03:49:57.309Z,4.57
2022-12-08T03:52:29.571Z,3.95
2022-12-08T03:54:59.020Z,3.43
2022-12-08T03:57:28.388Z,3.90
2022-12-08T03:59:57.832Z,4.10
2022-12-08T04:02:27.381Z,3.20
2022-12-08T04:04:57.098Z,3.72
2022-12-08T04:07:29.103Z,3.63
2022-12-08T04:09:58.555Z,2.60
2022-12-08T04:12:27.940Z,2.55
2022-12-08T04:14:57.342Z,3.13
2022-12-08T04:17:26.976Z,3.75
2022-12-08T04:19:56.394Z,2.92
2022-12-08T04:22:25.786Z,2.83
2022-12-08T04:24:58.067Z,3.35
2022-12-08T04:27:27.456Z,3.65
2022-12-08T04:29:56.866Z,3.55
2022-12-08T04:32:26.284Z,3.28
2022-12-08T04:34:55.714Z,3.65
2022-12-08T04:37:25.073Z,3.45
2022-12-08T04:39:54.727Z,3.90
2022-12-08T04:42:26.721Z,3.83
2022-12-08T04:44:56.159Z,2.85
2022-12-08T04:47:25.569Z,3.53
2022-12-08T04:49:54.995Z,3.55
2022-12-08T04:52:24.748Z,2.55
2022-12-08T04:54:54.092Z,2.90
2022-12-08T04:57:26.152Z,2.95
2022-12-08T04:59:55.800Z,2.92
2022-12-08T05:02:25.303Z,2.75
2022-12-08T05:04:54.793Z,2.55
2022-12-08T05:07:24.276Z,2.80
2022-12-08T05:09:53.683Z,3.80
2022-12-08T05:12:23.084Z,1.80
2022-12-08T05:14:55.093Z,2.92
2022-12-08T05:17:24.490Z,3.28
2022-12-08T05:19:53.869Z,3.25
2022-12-08T05:22:23.217Z,3.38
2022-12-08T05:24:52.627Z,3.00
2022-12-08T05:27:21.994Z,3.08
2022-12-08T05:29:51.399Z,3.22
2022-12-08T05:32:23.540Z,2.95
2022-12-08T05:34:52.943Z,3.85
2022-12-08T05:37:22.377Z,3.80
2022-12-08T05:39:51.827Z,3.90
2022-12-08T05:42:24.724Z,3.92
2022-12-08T05:44:54.697Z,3.08
2022-12-08T05:47:27.527Z,2.92
2022-12-08T05:49:58.361Z,3.42
2022-12-08T05:52:27.758Z,2.78
2022-12-08T05:54:57.131Z,2.78
2022-12-08T05:57:28.123Z,1.80
2022-12-08T05:59:59.542Z,2.38
2022-12-08T06:02:31.706Z,1.40
2022-12-08T06:05:01.204Z,2.55
2022-12-08T06:07:30.617Z,2.45
2022-12-08T06:10:03.451Z,2.03
2022-12-08T06:12:33.020Z,2.00
2022-12-08T06:15:02.439Z,1.90
2022-12-08T06:17:34.541Z,1.83
2022-12-08T06:20:04.209Z,1.80
2022-12-08T06:22:33.998Z,2.25
2022-12-08T06:25:07.195Z,2.35
2022-12-08T06:27:39.078Z,2.72
2022-12-08T06:30:10.197Z,2.50
2022-12-08T06:32:42.222Z,2.60
2022-12-08T06:35:12.638Z,2.08
2022-12-08T06:37:42.112Z,2.45
2022-12-08T06:40:12.666Z,2.00
2022-12-08T06:42:49.628Z,2.30
2022-12-08T06:45:20.482Z,2.45
2022-12-08T06:47:52.463Z,2.08
2022-12-08T06:50:22.039Z,2.40
2022-12-08T06:53:01.043Z,2.40
2022-12-08T06:55:57.988Z,2.75
2022-12-08T06:58:24.120Z,2.63
2022-12-08T07:00:53.844Z,3.17
2022-12-08T07:03:25.880Z,3.47
2022-12-08T07:06:03.513Z,8.05
2022-12-08T07:08:33.458Z,4.00
2022-12-08T07:11:02.988Z,9.18
2022-12-08T07:13:32.388Z,3.30
2022-12-08T07:16:01.838Z,7.40
2022-12-08T07:18:33.893Z,3.90
2022-12-08T07:21:06.431Z,3.90
2022-12-08T07:23:36.283Z,6.38
2022-12-08T07:26:06.594Z,15.93
2022-12-08T07:28:36.437Z,4.13
2022-12-08T07:31:06.657Z,4.60
2022-12-08T07:33:38.778Z,5.13
2022-12-08T07:36:09.184Z,3.90
2022-12-08T07:38:38.821Z,4.75
2022-12-08T07:41:08.560Z,4.63
2022-12-08T07:43:37.908Z,5.20
2022-12-08T07:46:07.778Z,4.72
2022-12-08T07:48:39.716Z,4.60
2022-12-08T07:51:09.705Z,5.97
2022-12-08T07:53:42.546Z,5.55
2022-12-08T07:56:13.394Z,5.78
2022-12-08T07:58:45.846Z,5.55
2022-12-08T08:01:23.226Z,6.47
2022-12-08T08:03:56.044Z,4.70
2022-12-08T08:06:26.048Z,5.47
2022-12-08T08:08:55.417Z,5.72
2022-12-08T08:11:24.945Z,6.60
2022-12-08T08:13:54.983Z,5.50
2022-12-08T08:16:24.547Z,6.68
2022-12-08T08:18:56.802Z,6.18
2022-12-08T08:21:45.160Z,6.70
2022-12-08T08:24:15.559Z,6.70
2022-12-08T08:26:45.015Z,7.13
2022-12-08T08:29:14.716Z,7.00
2022-12-08T08:31:44.165Z,7.15
2022-12-08T08:34:16.325Z,6.10
2022-12-08T08:36:45.796Z,5.95
2022-12-08T08:39:16.234Z,7.72
2022-12-08T08:41:45.774Z,7.63
2022-12-08T08:44:17.317Z,6.35
2022-12-08T08:46:46.791Z,5.57
2022-12-08T08:49:18.907Z,7.40
2022-12-08T08:51:48.863Z,8.02
2022-12-08T08:54:18.278Z,5.55
2022-12-08T08:56:48.335Z,7.40
2022-12-08T08:59:17.798Z,6.45
2022-12-08T09:01:47.326Z,7.27
2022-12-08T09:04:19.451Z,7.60
2022-12-08T09:06:49.511Z,6.30
2022-12-08T09:09:19.265Z,7.65
2022-12-08T09:11:48.653Z,8.15
2022-12-08T09:14:18.244Z,7.25
2022-12-08T09:16:47.714Z,7.07
2022-12-08T09:19:19.802Z,7.47
2022-12-08T09:21:49.264Z,7.97
2022-12-08T09:24:18.675Z,6.80
2022-12-08T09:26:48.343Z,7.18
2022-12-08T09:29:17.913Z,7.60
2022-12-08T09:31:47.601Z,8.70
2022-12-08T09:34:19.636Z,7.53
2022-12-08T09:36:49.028Z,10.18
2022-12-08T09:39:18.446Z,10.27
2022-12-08T09:41:52.439Z,9.68
2022-12-08T09:44:50.443Z,8.20
2022-12-08T09:47:24.228Z,7.82
2022-12-08T09:50:04.619Z,8.52
2022-12-08T09:52:37.645Z,8.00
2022-12-08T09:55:15.225Z,7.93
2022-12-08T09:57:44.845Z,7.60
2022-12-08T10:00:16.139Z,8.10
2022-12-08T10:02:46.097Z,7.80
2022-12-08T10:05:18.760Z,8.73
2022-12-08T10:07:51.191Z,8.68
2022-12-08T10:10:30.435Z,8.15
2022-12-08T10:13:06.022Z,9.10
2022-12-08T10:15:43.344Z,7.70
2022-12-08T10:18:22.595Z,6.95
2022-12-08T10:20:55.380Z,5.50
2022-12-08T10:23:31.209Z,5.20
2022-12-08T10:26:04.658Z,5.70
2022-12-08T10:28:38.745Z,6.50
2022-12-08T10:31:18.743Z,5.22
2022-12-08T10:33:50.387Z,5.07
2022-12-08T10:36:22.523Z,4.95
2022-12-08T10:38:52.065Z,5.85
2022-12-08T10:41:21.723Z,7.82
2022-12-08T10:43:52.764Z,6.00
2022-12-08T10:46:25.619Z,6.20
2022-12-08T10:48:56.883Z,6.20
2022-12-08T10:51:31.663Z,6.65
2022-12-08T10:54:01.228Z,6.20
2022-12-08T10:56:31.891Z,6.20
2022-12-08T10:59:17.381Z,7.38
2022-12-08T11:01:50.133Z,7.10
2022-12-08T11:04:21.309Z,6.25
2022-12-08T11:06:54.252Z,6.20
2022-12-08T11:09:39.098Z,5.88
2022-12-08T11:12:14.857Z,5.40
2022-12-08T11:14:53.272Z,7.20
2022-12-08T11:17:29.467Z,8.27
2022-12-08T11:20:01.693Z,5.53
2022-12-08T11:22:36.853Z,4.60
2022-12-08T11:25:13.312Z,4.88
2022-12-08T11:27:44.699Z,5.03
2022-12-08T11:30:17.468Z,5.05
2022-12-08T11:32:49.216Z,5.65
2022-12-08T11:35:26.149Z,6.78
2022-12-08T11:38:13.719Z,5.60
2022-12-08T11:40:51.729Z,5.97
2022-12-08T11:43:25.110Z,4.85
2022-12-08T11:45:59.348Z,5.05
2022-12-08T11:48:33.214Z,5.13
2022-12-08T11:51:05.381Z,5.57
2022-12-08T11:53:41.814Z,5.13
2022-12-08T11:56:18.110Z,5.77
2022-12-08T11:58:51.547Z,6.10
2022-12-08T12:01:23.806Z,5.40
2022-12-08T12:04:02.963Z,6.70
2022-12-08T12:06:57.978Z,5.73
2022-12-08T12:09:39.083Z,5.63
2022-12-08T12:12:19.185Z,5.45
2022-12-08T12:15:33.369Z,5.22
2022-12-08T12:18:04.788Z,6.60
2022-12-08T12:20:37.907Z,4.97
2022-12-08T12:23:10.525Z,5.43
2022-12-08T12:25:52.493Z,5.80
2022-12-08T12:28:22.543Z,6.45
2022-12-08T12:30:55.270Z,4.90
2022-12-08T12:33:25.560Z,5.75
2022-12-08T12:35:58.894Z,5.53
2022-12-08T12:38:42.674Z,4.60
2022-12-08T12:41:17.784Z,5.00
2022-12-08T12:44:12.232Z,4.47
2022-12-08T12:46:44.510Z,4.17
2022-12-08T12:49:49.891Z,5.30
2022-12-08T12:52:43.747Z,4.83
2022-12-08T12:55:31.086Z,4.43
2022-12-08T12:58:16.114Z,5.20
2022-12-08T13:00:45.639Z,5.43
2022-12-08T13:03:17.279Z,5.07
2022-12-08T13:05:52.420Z,5.90
2022-12-08T13:08:24.653Z,6.07
2022-12-08T13:11:02.684Z,5.73
2022-12-08T13:13:35.131Z,5.87
2022-12-08T13:16:18.445Z,6.40
2022-12-08T13:18:50.882Z,5.95
2022-12-08T13:21:23.114Z,6.23
2022-12-08T13:23:54.146Z,6.00
2022-12-08T13:26:25.335Z,5.90
2022-12-08T13:29:18.100Z,7.00
2022-12-08T13:31:51.246Z,15.90
2022-12-08T13:34:30.588Z,6.37
2022-12-08T13:37:16.445Z,6.43
2022-12-08T13:39:49.820Z,7.03
2022-12-08T13:42:24.932Z,7.40
2022-12-08T13:48:21.748Z,6.80
2022-12-08T13:54:48.461Z,7.37
2022-12-08T13:59:30.816Z,7.07
2022-12-08T14:02:06.311Z,9.30
2022-12-08T14:05:09.542Z,8.67
2022-12-08T14:07:26.227Z,7.23
2022-12-08T14:09:56.120Z,7.13
2022-12-08T14:12:28.131Z,14.80
2022-12-08T14:15:15.499Z,7.80
2022-12-08T14:17:53.904Z,8.23
2022-12-08T14:20:29.656Z,8.13
2022-12-08T14:22:59.735Z,10.50
2022-12-08T14:25:30.167Z,9.80
2022-12-08T14:28:02.222Z,9.37
2022-12-08T14:30:34.732Z,8.10
2022-12-08T14:33:07.653Z,9.02
2022-12-08T14:35:39.105Z,9.30
2022-12-08T14:38:14.302Z,8.00
2022-12-08T14:40:45.357Z,8.40
2022-12-08T14:43:18.421Z,8.27
2022-12-08T14:45:53.484Z,9.07
2022-12-08T14:48:30.397Z,8.40
2022-12-08T14:51:04.480Z,8.47
2022-12-08T14:53:40.220Z,8.50
2022-12-08T14:56:19.405Z,8.20
2022-12-08T14:58:49.143Z,8.47
2022-12-08T15:01:20.792Z,7.77
2022-12-08T15:03:54.722Z,9.03
2022-12-08T15:06:25.075Z,7.67
2022-12-08T15:08:58.692Z,9.00
2022-12-08T15:11:36.867Z,9.30
2022-12-08T15:14:06.493Z,9.80
2022-12-08T15:16:43.012Z,8.60
2022-12-08T15:19:24.307Z,9.40
2022-12-08T15:21:53.875Z,11.73
2022-12-08T15:24:24.633Z,8.93
2022-12-08T15:26:54.789Z,9.23
2022-12-08T15:29:27.834Z,11.20
2022-12-08T15:31:59.234Z,10.20
2022-12-08T15:34:31.899Z,9.17
2022-12-08T15:37:01.331Z,10.00
2022-12-08T15:39:34.915Z,9.47
2022-12-08T15:42:05.100Z,11.20
2022-12-08T15:44:34.546Z,9.37
2022-12-08T15:47:04.357Z,9.83
2022-12-08T15:49:36.437Z,9.20
2022-12-08T15:52:11.600Z,10.00
2022-12-08T15:54:41.750Z,10.73
2022-12-08T15:57:43.727Z,11.43
2022-12-08T16:00:51.875Z,11.40
2022-12-08T16:04:13.737Z,11.27
2022-12-08T16:09:18.991Z,12.40
2022-12-08T16:12:10.169Z,13.10
2022-12-08T16:17:31.333Z,11.40
2022-12-08T16:20:02.405Z,13.60
2022-12-08T16:25:25.223Z,14.77
2022-12-08T16:28:05.262Z,14.07
2022-12-08T16:30:42.271Z,12.55
2022-12-08T16:33:12.617Z,12.70
2022-12-08T16:35:43.052Z,10.93
2022-12-08T16:38:17.249Z,10.90
2022-12-08T16:41:00.359Z,12.15
2022-12-08T16:43:29.927Z,11.90
2022-12-08T16:45:59.347Z,11.60
2022-12-08T16:48:28.853Z,12.17
2022-12-08T16:50:58.651Z,12.37
2022-12-08T16:53:30.652Z,12.53
2022-12-08T16:56:00.145Z,12.17
2022-12-08T16:58:32.337Z,10.70
2022-12-08T17:01:02.823Z,10.60
2022-12-08T17:03:34.450Z,11.37
2022-12-08T17:06:03.894Z,11.13
2022-12-08T17:08:35.906Z,11.80
2022-12-08T17:11:12.831Z,11.20
2022-12-08T17:13:44.134Z,11.20
2022-12-08T17:16:15.962Z,11.50
2022-12-08T17:18:45.536Z,11.80
2022-12-08T17:21:16.090Z,11.07
2022-12-08T17:23:48.783Z,11.37
2022-12-08T17:26:18.293Z,11.47
2022-12-08T17:29:03.239Z,12.15
2022-12-08T17:31:34.422Z,12.98
2022-12-08T17:34:04.059Z,11.05
2022-12-08T17:36:33.711Z,12.20
2022-12-08T17:39:10.091Z,12.43
2022-12-08T17:41:43.049Z,11.95
2022-12-08T17:44:14.008Z,11.30
2022-12-08T17:46:49.085Z,11.53
2022-12-08T17:49:24.981Z,12.90
2022-12-08T17:51:57.008Z,15.40
2022-12-08T17:54:29.731Z,12.57
2022-12-08T17:57:00.004Z,13.13
2022-12-08T17:59:30.298Z,12.70
2022-12-08T18:02:00.662Z,11.52
2022-12-08T18:04:30.789Z,12.05
2022-12-08T18:07:01.359Z,11.52
2022-12-08T18:09:35.014Z,10.40
2022-12-08T18:12:04.613Z,11.90
2022-12-08T18:14:35.150Z,11.95
2022-12-08T18:17:04.838Z,13.88
2022-12-08T18:19:34.716Z,13.52
2022-12-08T18:22:04.374Z,13.98
2022-12-08T18:24:36.456Z,13.88
2022-12-08T18:27:06.334Z,13.80
2022-12-08T18:29:35.927Z,14.88
2022-12-08T18:32:06.422Z,14.80
2022-12-08T18:34:38.696Z,16.20
2022-12-08T18:37:08.877Z,16.00
2022-12-08T18:39:40.971Z,15.93
2022-12-08T18:42:25.158Z,13.27
2022-12-08T18:44:57.707Z,16.08
2022-12-08T18:47:27.514Z,16.02
2022-12-08T18:49:57.000Z,14.15
2022-12-08T18:52:31.733Z,13.43
2022-12-08T18:55:07.100Z,16.92
2022-12-08T18:57:36.988Z,14.75
2022-12-08T19:00:07.434Z,15.10
2022-12-08T19:02:37.194Z,14.25
2022-12-08T19:05:07.469Z,13.30
2022-12-08T19:07:39.433Z,14.27
2022-12-08T19:10:13.041Z,12.95
2022-12-08T19:12:42.941Z,14.57
2022-12-08T19:15:13.563Z,13.10
2022-12-08T19:17:43.010Z,13.70
2022-12-08T19:20:14.476Z,14.48
2022-12-08T19:22:44.158Z,14.90
2022-12-08T19:25:16.295Z,13.50
2022-12-08T19:27:48.024Z,12.63
2022-12-08T19:30:18.350Z,12.73
2022-12-08T19:32:48.311Z,14.15
2022-12-08T19:35:18.335Z,14.35
2022-12-08T19:37:47.969Z,14.02
2022-12-08T19:40:32.659Z,14.13
2022-12-08T19:43:14.646Z,15.98
2022-12-08T19:45:44.315Z,16.25
2022-12-08T19:48:14.050Z,15.20
2022-12-08T19:50:43.896Z,17.30
2022-12-08T19:53:15.296Z,15.27
2022-12-08T19:55:47.325Z,16.20
2022-12-08T19:58:16.781Z,16.65
2022-12-08T20:00:46.494Z,17.30
2022-12-08T20:03:18.009Z,18.40
2022-12-08T20:05:48.775Z,19.60
2022-12-08T20:08:18.571Z,19.17
2022-12-08T20:10:50.711Z,21.58
2022-12-08T20:13:32.670Z,20.00
2022-12-08T20:16:02.270Z,19.75
2022-12-08T20:18:31.823Z,19.83
2022-12-08T20:21:01.416Z,20.30
2022-12-08T20:23:30.949Z,20.67
2022-12-08T20:26:06.973Z,22.65
2022-12-08T20:28:37.034Z,20.93
2022-12-08T20:31:06.871Z,20.23
2022-12-08T20:33:36.478Z,23.00
2022-12-08T20:36:08.207Z,19.98
2022-12-08T20:38:37.652Z,21.37
2022-12-08T20:41:11.223Z,19.52
2022-12-08T20:43:40.724Z,24.63
2022-12-08T20:46:10.897Z,19.73
2022-12-08T20:48:40.661Z,19.73
2022-12-08T20:51:10.392Z,21.02
2022-12-08T20:53:39.953Z,20.77
2022-12-08T20:56:16.749Z,26.30
2022-12-08T20:58:46.432Z,21.95
2022-12-08T21:01:18.032Z,23.85
2022-12-08T21:03:48.409Z,22.88
2022-12-08T21:06:18.888Z,22.73
2022-12-08T21:08:48.467Z,24.25
2022-12-08T21:11:20.835Z,24.90
2022-12-08T21:13:50.385Z,24.55
2022-12-08T21:16:19.985Z,20.50
2022-12-08T21:18:49.542Z,22.48
2022-12-08T21:21:19.472Z,20.77
2022-12-08T21:23:49.255Z,17.05
2022-12-08T21:26:25.852Z,20.42
2022-12-08T21:28:56.461Z,22.15
2022-12-08T21:31:26.759Z,25.90
2022-12-08T21:33:56.670Z,23.00
2022-12-08T21:36:26.552Z,22.05
2022-12-08T21:38:58.308Z,21.98
2022-12-08T21:41:42.865Z,23.38
2022-12-08T21:44:14.982Z,24.55
2022-12-08T21:46:45.016Z,21.50
2022-12-08T21:49:14.532Z,21.42
2022-12-08T21:51:44.122Z,22.27
2022-12-08T21:54:18.613Z,24.80
2022-12-08T21:56:52.640Z,21.63
2022-12-08T21:59:22.305Z,22.58
2022-12-08T22:01:52.073Z,25.70
2022-12-08T22:04:25.182Z,24.40
2022-12-08T22:06:55.142Z,25.30
2022-12-08T22:09:24.699Z,25.25
2022-12-08T22:11:56.961Z,24.27
2022-12-08T22:14:26.689Z,23.83
2022-12-08T22:16:56.335Z,19.30
2022-12-08T22:19:27.112Z,21.48
2022-12-08T22:21:57.037Z,19.88
2022-12-08T22:24:26.831Z,19.45
2022-12-08T22:26:58.853Z,19.75
2022-12-08T22:29:28.529Z,16.35
2022-12-08T22:31:58.246Z,18.63
2022-12-08T22:34:27.715Z,19.00
2022-12-08T22:36:57.138Z,20.42
2022-12-08T22:39:26.823Z,20.17
2022-12-08T22:41:58.844Z,18.08
2022-12-08T22:44:28.718Z,21.67
2022-12-08T22:46:59.508Z,17.88
2022-12-08T22:49:29.364Z,18.95
2022-12-08T22:51:58.969Z,20.77
2022-12-08T22:54:29.420Z,21.50
2022-12-08T22:57:02.226Z,16.70
2022-12-08T22:59:33.364Z,20.60
2022-12-08T23:02:03.152Z,16.90
2022-12-08T23:04:32.960Z,17.83
2022-12-08T23:07:02.680Z,16.30
2022-12-08T23:09:32.218Z,16.88
2022-12-08T23:12:04.271Z,17.75
2022-12-08T23:14:33.842Z,18.58
2022-12-08T23:17:03.600Z,20.63
2022-12-08T23:19:33.465Z,17.50
2022-12-08T23:22:03.214Z,18.40
2022-12-08T23:24:32.943Z,17.70
2022-12-08T23:27:05.097Z,17.25
2022-12-08T23:29:34.764Z,17.65
2022-12-08T23:32:04.503Z,18.58
2022-12-08T23:34:34.066Z,18.30
2022-12-08T23:37:03.759Z,19.75
2022-12-08T23:39:33.370Z,19.05
2022-12-08T23:42:05.486Z,20.75
2022-12-08T23:44:35.261Z,19.45
2022-12-08T23:47:05.009Z,17.98
2022-12-08T23:49:34.678Z,20.50
2022-12-08T23:52:04.113Z,20.80
2022-12-08T23:54:33.770Z,18.70
2022-12-08T23:57:06.007Z,18.83
2022-12-08T23:59:35.600Z,17.88
